aviador You're here:

MROC Decoded Metar

SAN JOSE in COSTA RICA
Report Time2017-08-24 06:00:00
UTC Time2017-08-24 06:59:16
Flight Rules vfr VFR
Wind350° at 02 kt
W.Decomp.*RWY 07: 0.3 kt HW 2 kt LCW
W.Rank350° ranks 32
Current wind is below 350° avg. (3.8)
Visibility9999 m
Phenomena:N/A
Clouds:Few 010 Hf
Scattered 030 Hf
Broken 200 Hf
Ceiling20,000 ft
Temp20°C (ISA +11)
Dew Point20°C (100% RH)
QNH1016 hPa
Density Alt4,521 ft
Elevation3,018 ft
Report Wrong Elevation
Raw Report
MROC 240600Z 35002KT 9999 FEW010 SCT030 BKN200 20/20 A2999
NOSIG=

Extra information for MROC:More info

Metar Taf Metar & Taf Last 4 Metars F.Rules Stats Wind Profile Meteogram Temp Stats Airport Information Weather charts Add Link Nearby VenuesMetar ALERT Operation Metar Decoded Social comments